createdAt,value
2022-11-24T00:01:07.191Z,85.97
2022-11-24T00:03:36.210Z,86.08
2022-11-24T00:06:07.464Z,86.23
2022-11-24T00:08:36.404Z,86.31
2022-11-24T00:11:06.116Z,86.30
2022-11-24T00:13:35.097Z,86.50
2022-11-24T00:16:08.122Z,86.58
2022-11-24T00:18:36.969Z,86.69
2022-11-24T00:21:05.875Z,86.79
2022-11-24T00:23:34.690Z,86.98
2022-11-24T00:26:07.884Z,87.02
2022-11-24T00:28:37.497Z,87.25
2022-11-24T00:31:17.202Z,87.39
2022-11-24T00:33:46.580Z,87.49
2022-11-24T00:36:16.455Z,87.72
2022-11-24T00:38:45.789Z,87.79
2022-11-24T00:41:15.231Z,88.01
2022-11-24T00:43:44.429Z,88.07
2022-11-24T00:46:13.897Z,88.07
2022-11-24T00:48:42.839Z,88.22
2022-11-24T00:51:12.694Z,88.38
2022-11-24T00:53:42.103Z,88.49
2022-11-24T00:56:11.450Z,88.51
2022-11-24T00:58:40.624Z,88.62
2022-11-24T01:01:11.846Z,88.72
2022-11-24T01:03:40.727Z,88.73
2022-11-24T01:06:10.804Z,88.77
2022-11-24T01:08:40.056Z,88.79
2022-11-24T01:11:10.321Z,88.85
2022-11-24T01:13:40.045Z,89.05
2022-11-24T01:16:14.409Z,89.07
2022-11-24T01:18:43.405Z,89.12
2022-11-24T01:21:12.551Z,89.17
2022-11-24T01:23:41.416Z,89.24
2022-11-24T01:26:11.721Z,89.27
2022-11-24T01:28:46.627Z,89.26
2022-11-24T01:31:17.187Z,89.48
2022-11-24T01:33:46.340Z,89.56
2022-11-24T01:36:15.520Z,89.57
2022-11-24T01:38:44.638Z,89.72
2022-11-24T01:41:14.733Z,89.63
2022-11-24T01:43:44.031Z,89.65
2022-11-24T01:46:18.685Z,89.71
2022-11-24T01:48:49.686Z,89.70
2022-11-24T01:51:21.688Z,89.68
2022-11-24T01:53:53.276Z,89.79
2022-11-24T01:56:22.212Z,89.81
2022-11-24T01:58:53.138Z,89.76
2022-11-24T02:01:22.585Z,89.88
2022-11-24T02:03:53.167Z,90.05
2022-11-24T02:06:23.720Z,90.07
2022-11-24T02:08:54.122Z,90.16
2022-11-24T02:11:24.136Z,90.18
2022-11-24T02:13:54.434Z,90.07
2022-11-24T02:16:23.423Z,90.10
2022-11-24T02:18:52.649Z,90.23
2022-11-24T02:21:21.549Z,90.26
2022-11-24T02:23:54.731Z,90.29
2022-11-24T02:26:29.997Z,90.39
2022-11-24T02:28:58.988Z,90.48
2022-11-24T02:31:27.956Z,90.57
2022-11-24T02:33:56.847Z,90.44
2022-11-24T02:36:26.381Z,90.49
2022-11-24T02:38:55.305Z,90.60
2022-11-24T02:41:26.613Z,90.59
2022-11-24T02:43:56.723Z,90.59
2022-11-24T02:46:26.003Z,90.48
2022-11-24T02:48:55.217Z,90.46
2022-11-24T02:51:24.433Z,90.40
2022-11-24T02:53:53.352Z,90.43
2022-11-24T02:56:22.725Z,90.53
2022-11-24T02:58:52.103Z,90.53
2022-11-24T03:01:21.009Z,90.60
2022-11-24T03:03:49.935Z,90.61
2022-11-24T03:06:18.846Z,90.68
2022-11-24T03:08:47.661Z,90.63
2022-11-24T03:11:16.488Z,90.67
2022-11-24T03:13:45.883Z,90.71
2022-11-24T03:16:15.102Z,90.85
2022-11-24T03:18:43.999Z,90.93
2022-11-24T03:21:12.820Z,90.87
2022-11-24T03:23:42.059Z,90.90
2022-11-24T03:26:11.976Z,90.93
2022-11-24T03:28:41.138Z,90.88
2022-11-24T03:31:10.615Z,90.78
2022-11-24T03:33:39.816Z,90.88
2022-11-24T03:36:09.573Z,90.86
2022-11-24T03:38:38.771Z,90.91
2022-11-24T03:41:08.089Z,91.03
2022-11-24T03:43:43.165Z,90.96
2022-11-24T03:46:12.874Z,90.89
2022-11-24T03:48:41.958Z,90.75
2022-11-24T03:51:11.435Z,90.81
2022-11-24T03:53:40.856Z,90.88
2022-11-24T03:56:10.326Z,90.82
2022-11-24T03:58:39.154Z,90.74
2022-11-24T04:01:08.059Z,90.75
2022-11-24T04:03:36.832Z,90.70
2022-11-24T04:06:05.679Z,90.84
2022-11-24T04:08:34.514Z,90.84
2022-11-24T04:11:03.671Z,90.81
2022-11-24T04:13:32.467Z,90.81
2022-11-24T04:16:01.723Z,90.84
2022-11-24T04:18:31.260Z,90.77
2022-11-24T04:21:00.092Z,90.86
2022-11-24T04:23:29.002Z,90.73
2022-11-24T04:25:57.767Z,90.66
2022-11-24T04:28:26.603Z,90.73
2022-11-24T04:30:55.387Z,90.83
2022-11-24T04:33:24.475Z,90.79
2022-11-24T04:35:55.396Z,90.87
2022-11-24T04:39:22.827Z,90.97
2022-11-24T04:41:13.224Z,91.02
2022-11-24T04:43:41.935Z,91.03
2022-11-24T04:46:11.583Z,91.02
2022-11-24T04:48:40.400Z,91.01
2022-11-24T04:51:09.306Z,91.05
2022-11-24T04:53:38.470Z,91.00
2022-11-24T04:56:07.969Z,91.04
2022-11-24T04:58:37.161Z,90.99
2022-11-24T05:01:09.449Z,90.90
2022-11-24T05:03:38.401Z,90.86
2022-11-24T05:06:08.886Z,90.88
2022-11-24T05:08:38.128Z,90.78
2022-11-24T05:11:07.322Z,90.89
2022-11-24T05:13:36.536Z,90.81
2022-11-24T05:16:05.846Z,90.75
2022-11-24T05:18:34.820Z,90.73
2022-11-24T05:21:03.688Z,90.73
2022-11-24T05:23:32.813Z,90.66
2022-11-24T05:26:02.203Z,90.78
2022-11-24T05:28:31.500Z,90.75
2022-11-24T05:31:03.738Z,90.63
2022-11-24T05:33:33.614Z,90.72
2022-11-24T05:36:03.327Z,90.72
2022-11-24T05:38:32.757Z,90.82
2022-11-24T05:41:04.783Z,90.79
2022-11-24T05:43:33.636Z,90.78
2022-11-24T05:46:03.038Z,90.53
2022-11-24T05:48:32.268Z,90.69
2022-11-24T05:51:04.169Z,90.62
2022-11-24T05:53:36.819Z,90.54
2022-11-24T05:56:06.319Z,90.38
2022-11-24T05:58:35.460Z,90.47
2022-11-24T06:01:07.784Z,90.40
2022-11-24T06:03:36.664Z,90.45
2022-11-24T06:06:05.623Z,90.29
2022-11-24T06:08:34.995Z,90.46
2022-11-24T06:11:17.312Z,90.17
2022-11-24T06:13:48.225Z,90.17
2022-11-24T06:16:17.242Z,90.07
2022-11-24T06:18:46.528Z,89.94
2022-11-24T06:21:17.150Z,89.97
2022-11-24T06:23:48.264Z,89.93
2022-11-24T06:26:17.854Z,89.97
2022-11-24T06:28:46.772Z,89.97
2022-11-24T06:31:15.667Z,90.04
2022-11-24T06:33:44.974Z,90.05
2022-11-24T06:36:15.015Z,90.13
2022-11-24T06:38:43.958Z,90.00
2022-11-24T06:41:14.042Z,90.04
2022-11-24T06:43:42.993Z,89.85
2022-11-24T06:46:12.142Z,89.80
2022-11-24T06:48:41.188Z,89.90
2022-11-24T06:51:12.877Z,89.85
2022-11-24T06:53:42.158Z,89.97
2022-11-24T06:56:16.178Z,89.95
2022-11-24T06:58:46.595Z,90.11
2022-11-24T07:01:17.038Z,90.06
2022-11-24T07:03:46.517Z,90.12
2022-11-24T07:06:15.856Z,90.06
2022-11-24T07:08:44.899Z,90.02
2022-11-24T07:11:15.608Z,89.97
2022-11-24T07:13:45.092Z,90.02
2022-11-24T07:16:15.861Z,90.11
2022-11-24T07:18:45.530Z,90.10
2022-11-24T07:21:14.927Z,90.18
2022-11-24T07:23:43.855Z,89.98
2022-11-24T07:26:13.302Z,89.99
2022-11-24T07:28:42.144Z,89.92
2022-11-24T07:31:12.402Z,89.82
2022-11-24T07:33:41.695Z,89.90
2022-11-24T07:36:11.232Z,89.77
2022-11-24T07:38:40.374Z,89.62
2022-11-24T07:41:10.709Z,89.60
2022-11-24T07:43:40.159Z,89.62
2022-11-24T07:46:11.495Z,89.62
2022-11-24T07:48:41.119Z,89.75
2022-11-24T07:51:10.342Z,89.72
2022-11-24T07:53:39.552Z,89.86
2022-11-24T07:56:08.608Z,89.69
2022-11-24T07:58:37.937Z,89.68
2022-11-24T08:01:14.481Z,89.74
2022-11-24T08:03:43.545Z,89.86
2022-11-24T08:06:24.417Z,89.85
2022-11-24T08:08:56.726Z,89.85
2022-11-24T08:11:25.957Z,90.02
2022-11-24T08:13:55.153Z,90.06
2022-11-24T08:16:24.850Z,89.98
2022-11-24T08:18:54.690Z,90.16
2022-11-24T08:21:24.185Z,90.29
2022-11-24T08:23:56.497Z,90.46
2022-11-24T08:26:25.814Z,90.67
2022-11-24T08:28:55.924Z,90.70
2022-11-24T08:31:27.331Z,90.78
2022-11-24T08:33:57.268Z,90.76
2022-11-24T08:36:26.325Z,90.72
2022-11-24T08:38:57.361Z,90.78
2022-11-24T08:41:27.124Z,90.75
2022-11-24T08:43:56.652Z,90.68
2022-11-24T08:46:26.054Z,90.69
2022-11-24T08:48:56.033Z,90.54
2022-11-24T08:51:26.077Z,90.60
2022-11-24T08:53:57.021Z,90.68
2022-11-24T08:56:26.665Z,90.67
2022-11-24T08:58:56.242Z,90.61
2022-11-24T09:01:25.704Z,90.61
2022-11-24T09:03:54.890Z,90.57
2022-11-24T09:06:25.126Z,90.80
2022-11-24T09:08:54.782Z,90.75
2022-11-24T09:11:24.356Z,90.78
2022-11-24T09:13:54.117Z,90.95
2022-11-24T09:16:25.993Z,91.14
2022-11-24T09:19:00.457Z,91.25
2022-11-24T09:21:30.371Z,91.16
2022-11-24T09:23:59.267Z,91.24
2022-11-24T09:26:29.564Z,91.21
2022-11-24T09:28:59.037Z,91.07
2022-11-24T09:31:29.353Z,91.03
2022-11-24T09:33:59.533Z,90.73
2022-11-24T09:36:29.056Z,90.75
2022-11-24T09:38:57.972Z,90.54
2022-11-24T09:41:35.958Z,90.69
2022-11-24T09:44:08.421Z,90.58
2022-11-24T09:46:41.789Z,90.66
2022-11-24T09:49:13.997Z,90.58
2022-11-24T09:51:45.656Z,90.55
2022-11-24T09:54:17.277Z,90.54
2022-11-24T09:56:47.542Z,90.49
2022-11-24T09:59:17.928Z,90.58
2022-11-24T10:01:47.940Z,90.52
2022-11-24T10:04:19.852Z,90.68
2022-11-24T10:06:53.276Z,90.77
2022-11-24T10:09:30.111Z,90.81
2022-11-24T10:12:04.434Z,90.59
2022-11-24T10:14:56.353Z,90.42
2022-11-24T10:17:33.204Z,90.28
2022-11-24T10:20:05.884Z,90.19
2022-11-24T10:22:43.920Z,90.21
2022-11-24T10:25:20.080Z,90.32
2022-11-24T10:27:50.854Z,90.26
2022-11-24T10:30:22.148Z,90.28
2022-11-24T10:32:53.809Z,90.33
2022-11-24T10:35:24.661Z,90.42
2022-11-24T10:38:01.712Z,90.53
2022-11-24T10:43:24.610Z,90.77
2022-11-24T10:45:53.579Z,90.69
2022-11-24T10:48:25.491Z,90.44
2022-11-24T10:50:58.541Z,90.44
2022-11-24T10:53:30.283Z,90.34
2022-11-24T10:55:59.942Z,90.21
2022-11-24T10:58:37.070Z,90.09
2022-11-24T11:01:20.670Z,90.09
2022-11-24T11:03:50.729Z,89.90
2022-11-24T11:06:24.560Z,89.75
2022-11-24T11:09:12.416Z,89.70
2022-11-24T11:11:41.886Z,89.57
2022-11-24T11:14:12.920Z,89.35
2022-11-24T11:16:42.645Z,89.34
2022-11-24T11:19:47.908Z,89.42
2022-11-24T11:22:17.559Z,89.17
2022-11-24T11:24:48.021Z,88.99
2022-11-24T11:27:19.421Z,88.70
2022-11-24T11:35:40.315Z,87.91
2022-11-24T11:38:09.219Z,87.83
2022-11-24T11:40:38.387Z,87.73
2022-11-24T11:43:12.914Z,87.81
2022-11-24T11:45:45.523Z,87.50
2022-11-24T11:48:25.070Z,87.49
2022-11-24T11:51:22.229Z,87.42
2022-11-24T11:53:52.510Z,87.21
2022-11-24T11:56:26.592Z,87.07
2022-11-24T11:59:15.012Z,86.95
2022-11-24T12:01:56.509Z,86.86
2022-11-24T12:04:42.533Z,86.84
2022-11-24T12:07:23.041Z,86.81
2022-11-24T12:09:59.168Z,86.89
2022-11-24T12:12:34.187Z,86.81
2022-11-24T12:15:11.043Z,86.84
2022-11-24T12:17:43.282Z,86.59
2022-11-24T12:20:44.083Z,86.77
2022-11-24T12:23:19.242Z,86.78
2022-11-24T12:25:52.843Z,86.78
2022-11-24T12:28:31.901Z,86.49
2022-11-24T12:31:05.288Z,86.71
2022-11-24T12:34:01.090Z,86.91
2022-11-24T12:36:37.341Z,86.83
2022-11-24T12:39:10.775Z,86.99
2022-11-24T12:41:47.575Z,86.89
2022-11-24T12:44:22.801Z,86.74
2022-11-24T12:46:57.881Z,86.62
2022-11-24T12:49:31.678Z,86.55
2022-11-24T12:52:04.106Z,86.35
2022-11-24T12:54:37.758Z,86.04
2022-11-24T12:57:09.186Z,85.87
2022-11-24T12:59:45.243Z,85.06
2022-11-24T13:02:18.192Z,84.66
2022-11-24T13:04:51.114Z,84.21
2022-11-24T13:07:23.326Z,84.04
2022-11-24T13:10:08.716Z,83.53
2022-11-24T13:12:53.489Z,83.34
2022-11-24T13:18:31.755Z,82.99
2022-11-24T13:21:00.624Z,82.79
2022-11-24T13:23:30.129Z,82.79
2022-11-24T13:26:12.545Z,82.83
2022-11-24T13:29:12.990Z,82.81
2022-11-24T13:31:47.236Z,82.53
2022-11-24T13:34:30.200Z,82.50
2022-11-24T13:36:59.106Z,82.46
2022-11-24T13:39:52.231Z,82.24
2022-11-24T13:42:42.425Z,82.28
2022-11-24T13:45:33.547Z,81.80
2022-11-24T13:48:02.886Z,81.79
2022-11-24T13:50:51.741Z,81.73
2022-11-24T13:53:26.523Z,81.73
2022-11-24T13:55:57.977Z,81.57
2022-11-24T13:58:31.051Z,81.42
2022-11-24T14:01:11.433Z,81.53
2022-11-24T14:03:55.460Z,81.42
2022-11-24T14:06:32.750Z,81.49
2022-11-24T14:09:03.098Z,81.19
2022-11-24T14:11:31.923Z,81.27
2022-11-24T14:14:16.041Z,81.35
2022-11-24T14:16:48.227Z,81.59
2022-11-24T14:19:19.881Z,81.48
2022-11-24T14:21:49.104Z,81.60
2022-11-24T14:24:24.065Z,81.49
2022-11-24T14:26:52.893Z,81.78
2022-11-24T14:29:23.007Z,81.73
2022-11-24T14:31:54.810Z,81.77
2022-11-24T14:34:24.775Z,81.72
2022-11-24T14:36:55.065Z,81.97
2022-11-24T14:39:24.690Z,82.08
2022-11-24T14:41:58.897Z,82.12
2022-11-24T14:44:29.642Z,82.25
2022-11-24T14:47:05.711Z,82.29
2022-11-24T14:49:35.525Z,82.42
2022-11-24T14:52:09.730Z,82.54
2022-11-24T14:54:45.610Z,82.57
2022-11-24T14:57:24.195Z,82.82
2022-11-24T15:00:07.919Z,82.83
2022-11-24T15:02:43.344Z,83.02
2022-11-24T15:05:12.473Z,83.16
2022-11-24T15:07:43.448Z,83.14
2022-11-24T15:10:20.671Z,83.49
2022-11-24T15:12:52.539Z,83.80
2022-11-24T15:15:23.887Z,83.96
2022-11-24T15:17:54.147Z,84.22
2022-11-24T15:20:26.492Z,84.35
2022-11-24T15:23:08.860Z,84.68
2022-11-24T15:25:37.890Z,84.45
2022-11-24T15:28:06.855Z,84.72
2022-11-24T15:30:36.698Z,84.91
2022-11-24T15:33:12.615Z,84.69
2022-11-24T15:35:42.145Z,84.83
2022-11-24T15:38:11.151Z,85.09
2022-11-24T15:40:40.642Z,85.31
2022-11-24T15:43:17.666Z,85.34
2022-11-24T15:45:46.830Z,85.35
2022-11-24T15:48:18.121Z,85.52
2022-11-24T15:50:47.936Z,85.44
2022-11-24T15:53:20.019Z,85.77
2022-11-24T15:55:49.452Z,85.57
2022-11-24T15:58:18.511Z,85.51
2022-11-24T16:00:47.502Z,85.70
2022-11-24T16:03:45.680Z,85.80
2022-11-24T16:06:06.720Z,85.93
2022-11-24T16:08:35.835Z,86.28
2022-11-24T16:11:04.827Z,86.34
2022-11-24T16:13:33.962Z,86.23
2022-11-24T16:16:03.495Z,86.34
2022-11-24T16:18:32.748Z,86.45
2022-11-24T16:21:01.531Z,86.46
2022-11-24T16:23:30.414Z,86.57
2022-11-24T16:25:59.263Z,86.57
2022-11-24T16:28:28.936Z,86.38
2022-11-24T16:30:58.193Z,86.47
2022-11-24T16:33:27.072Z,86.43
2022-11-24T16:35:55.980Z,86.36
2022-11-24T16:38:28.205Z,86.37
2022-11-24T16:40:58.932Z,86.50
2022-11-24T16:43:32.942Z,86.79
2022-11-24T16:46:12.750Z,86.88
2022-11-24T16:48:46.043Z,87.05
2022-11-24T16:51:20.973Z,87.17
2022-11-24T16:53:58.974Z,87.25
2022-11-24T16:56:34.427Z,87.32
2022-11-24T16:59:07.077Z,87.38
2022-11-24T17:01:40.347Z,87.38
2022-11-24T17:04:13.164Z,87.25
2022-11-24T17:06:44.170Z,87.35
2022-11-24T17:09:25.080Z,87.11
2022-11-24T17:11:56.011Z,87.31
2022-11-24T17:14:25.274Z,87.22
2022-11-24T17:16:59.302Z,87.35
2022-11-24T17:19:28.893Z,87.15
2022-11-24T17:21:59.336Z,87.12
2022-11-24T17:24:29.823Z,86.92
2022-11-24T17:27:01.629Z,86.97
2022-11-24T17:29:32.227Z,86.92
2022-11-24T17:32:05.355Z,87.11
2022-11-24T17:34:35.267Z,87.04
2022-11-24T17:37:04.569Z,86.74
2022-11-24T17:39:35.576Z,86.53
2022-11-24T17:42:05.712Z,86.74
2022-11-24T17:44:35.865Z,86.68
2022-11-24T17:47:05.920Z,86.65
2022-11-24T17:49:39.437Z,86.93
2022-11-24T17:52:12.389Z,86.94
2022-11-24T17:54:46.750Z,87.04
2022-11-24T17:57:19.484Z,87.04
2022-11-24T17:59:51.270Z,86.95
2022-11-24T18:02:20.802Z,86.79
2022-11-24T18:04:51.131Z,87.00
2022-11-24T18:07:20.201Z,86.82
2022-11-24T18:09:51.461Z,86.95
2022-11-24T18:12:21.464Z,86.98
2022-11-24T18:14:52.565Z,86.85
2022-11-24T18:17:23.323Z,86.98
2022-11-24T18:19:53.332Z,86.93
2022-11-24T18:22:42.976Z,86.70
2022-11-24T18:25:12.356Z,86.79
2022-11-24T18:27:42.366Z,86.75
2022-11-24T18:30:13.288Z,86.58
2022-11-24T18:32:42.794Z,86.52
2022-11-24T18:35:13.003Z,86.60
2022-11-24T18:37:44.309Z,86.54
2022-11-24T18:40:13.576Z,86.60
2022-11-24T18:42:42.874Z,86.70
2022-11-24T18:45:13.463Z,86.59
2022-11-24T18:47:44.230Z,86.61
2022-11-24T18:50:13.705Z,86.71
2022-11-24T18:52:43.024Z,86.37
2022-11-24T18:55:12.609Z,86.34
2022-11-24T18:57:42.185Z,86.29
2022-11-24T19:00:12.645Z,86.35
2022-11-24T19:02:41.644Z,86.55
2022-11-24T19:05:11.116Z,86.37
2022-11-24T19:07:42.136Z,86.27
2022-11-24T19:10:12.339Z,86.05
2022-11-24T19:12:41.664Z,86.10
2022-11-24T19:15:11.464Z,86.01
2022-11-24T19:17:40.813Z,85.90
2022-11-24T19:20:11.126Z,85.79
2022-11-24T19:22:39.996Z,85.60
2022-11-24T19:25:09.852Z,85.43
2022-11-24T19:27:38.683Z,85.38
2022-11-24T19:30:08.663Z,85.25
2022-11-24T19:32:37.480Z,85.38
2022-11-24T19:35:06.932Z,85.37
2022-11-24T19:37:35.835Z,85.14
2022-11-24T19:40:04.872Z,85.18
2022-11-24T19:42:33.804Z,85.31
2022-11-24T19:45:02.651Z,85.33
2022-11-24T19:47:31.557Z,85.45
2022-11-24T19:50:01.597Z,85.61
2022-11-24T19:52:32.330Z,85.81
2022-11-24T19:55:02.070Z,85.95
2022-11-24T19:57:31.121Z,85.90
2022-11-24T20:00:00.354Z,85.87
2022-11-24T20:02:30.300Z,85.79
2022-11-24T20:04:59.777Z,85.96
2022-11-24T20:07:28.623Z,86.15
2022-11-24T20:09:58.606Z,86.17
2022-11-24T20:12:28.722Z,86.19
2022-11-24T20:14:58.061Z,86.22
2022-11-24T20:17:30.056Z,86.29
2022-11-24T20:19:58.957Z,86.47
2022-11-24T20:22:27.750Z,86.44
2022-11-24T20:24:56.609Z,86.41
2022-11-24T20:27:25.815Z,86.17
2022-11-24T20:29:54.675Z,86.13
2022-11-24T20:32:23.936Z,86.02
2022-11-24T20:34:52.886Z,86.34
2022-11-24T20:37:23.289Z,86.22
2022-11-24T20:39:52.975Z,86.47
2022-11-24T20:42:21.945Z,86.66
2022-11-24T20:44:51.395Z,86.95
2022-11-24T20:47:20.652Z,86.83
2022-11-24T20:49:49.552Z,86.93
2022-11-24T20:52:18.552Z,86.80
2022-11-24T20:54:47.467Z,87.25
2022-11-24T20:57:16.935Z,86.95
2022-11-24T20:59:45.833Z,87.08
2022-11-24T21:02:14.810Z,87.11
2022-11-24T21:04:43.831Z,87.06
2022-11-24T21:07:13.762Z,86.84
2022-11-24T21:09:43.232Z,86.86
2022-11-24T21:12:12.039Z,86.74
2022-11-24T21:14:41.741Z,86.97
2022-11-24T21:17:10.859Z,87.09
2022-11-24T21:19:39.760Z,87.17
2022-11-24T21:22:08.593Z,86.83
2022-11-24T21:24:37.547Z,86.86
2022-11-24T21:27:06.523Z,86.91
2022-11-24T21:29:35.796Z,87.35
2022-11-24T21:32:04.837Z,87.53
2022-11-24T21:34:34.092Z,87.41
2022-11-24T21:37:03.374Z,87.65
2022-11-24T21:39:32.297Z,87.70
2022-11-24T21:42:01.502Z,87.57
2022-11-24T21:44:31.164Z,87.49
2022-11-24T21:47:00.448Z,87.52
2022-11-24T21:49:29.703Z,87.40
2022-11-24T21:51:59.110Z,87.47
2022-11-24T21:54:28.105Z,87.28
2022-11-24T21:56:57.489Z,87.38
2022-11-24T21:59:26.447Z,87.33
2022-11-24T22:01:55.359Z,87.33
2022-11-24T22:04:24.300Z,87.26
2022-11-24T22:06:54.607Z,87.37
2022-11-24T22:09:23.889Z,87.03
2022-11-24T22:11:53.345Z,87.09
2022-11-24T22:14:22.206Z,87.03
2022-11-24T22:16:51.544Z,87.05
2022-11-24T22:19:21.105Z,87.23
2022-11-24T22:21:49.923Z,87.33
2022-11-24T22:24:23.012Z,87.04
2022-11-24T22:26:56.465Z,87.00
2022-11-24T22:29:25.634Z,86.86
2022-11-24T22:31:54.516Z,86.97
2022-11-24T22:34:23.481Z,87.11
2022-11-24T22:36:52.744Z,87.33
2022-11-24T22:39:21.580Z,87.17
2022-11-24T22:41:50.489Z,86.98
2022-11-24T22:44:19.376Z,87.02
2022-11-24T22:46:48.273Z,86.93
2022-11-24T22:49:17.591Z,86.77
2022-11-24T22:51:46.428Z,86.55
2022-11-24T22:54:15.331Z,86.39
2022-11-24T22:56:44.241Z,86.54
2022-11-24T22:59:13.140Z,86.59
2022-11-24T23:01:42.048Z,86.74
2022-11-24T23:04:11.005Z,86.72
2022-11-24T23:06:40.662Z,86.60
2022-11-24T23:09:12.326Z,86.69
2022-11-24T23:11:41.795Z,86.78
2022-11-24T23:14:13.691Z,86.58
2022-11-24T23:16:43.144Z,86.47
2022-11-24T23:19:12.162Z,86.40
2022-11-24T23:21:40.991Z,86.70
2022-11-24T23:24:11.483Z,86.22
2022-11-24T23:26:41.421Z,85.88
2022-11-24T23:29:11.043Z,85.42
2022-11-24T23:31:40.806Z,85.17
2022-11-24T23:34:10.566Z,85.25
2022-11-24T23:36:39.520Z,85.52
2022-11-24T23:39:09.489Z,85.81
2022-11-24T23:41:38.423Z,85.68
2022-11-24T23:44:08.240Z,85.82
2022-11-24T23:46:37.587Z,85.73
2022-11-24T23:49:06.516Z,85.65
2022-11-24T23:51:35.760Z,85.86
2022-11-24T23:54:08.399Z,85.87
2022-11-24T23:56:38.346Z,86.18
2022-11-24T23:59:07.169Z,86.11
